sensor_id;sensor_type;location;lat;lon;timestamp;pressure;altitude;pressure_sealevel;temperature;humidity
66479;BME280;53294;47.912;13.526;2023-04-09T00:02:14;96739.22;;;6.93;61.37
66479;BME280;53294;47.912;13.526;2023-04-09T00:04:41;96742.09;;;6.87;61.47
66479;BME280;53294;47.912;13.526;2023-04-09T00:07:08;96734.41;;;6.90;61.28
66479;BME280;53294;47.912;13.526;2023-04-09T00:09:34;96735.97;;;6.91;61.31
66479;BME280;53294;47.912;13.526;2023-04-09T00:12:01;96742.88;;;6.82;61.53
66479;BME280;53294;47.912;13.526;2023-04-09T00:14:28;96746.47;;;6.60;62.29
66479;BME280;53294;47.912;13.526;2023-04-09T00:16:55;96743.84;;;6.65;62.52
66479;BME280;53294;47.912;13.526;2023-04-09T00:19:22;96745.50;;;6.77;61.81
66479;BME280;53294;47.912;13.526;2023-04-09T00:21:49;96731.13;;;6.78;61.82
66479;BME280;53294;47.912;13.526;2023-04-09T00:24:16;96742.81;;;6.72;62.35
66479;BME280;53294;47.912;13.526;2023-04-09T00:26:42;96744.44;;;6.73;62.07
66479;BME280;53294;47.912;13.526;2023-04-09T00:29:09;96743.06;;;6.70;62.39
66479;BME280;53294;47.912;13.526;2023-04-09T00:31:36;96740.94;;;6.72;62.05
66479;BME280;53294;47.912;13.526;2023-04-09T00:34:03;96748.06;;;6.61;62.27
66479;BME280;53294;47.912;13.526;2023-04-09T00:36:29;96750.22;;;6.64;62.51
66479;BME280;53294;47.912;13.526;2023-04-09T00:38:56;96746.84;;;6.74;62.19
66479;BME280;53294;47.912;13.526;2023-04-09T00:41:24;96748.72;;;6.79;61.68
66479;BME280;53294;47.912;13.526;2023-04-09T00:43:50;96748.00;;;6.89;61.29
66479;BME280;53294;47.912;13.526;2023-04-09T00:46:17;96749.53;;;6.79;61.91
66479;BME280;53294;47.912;13.526;2023-04-09T00:48:44;96745.59;;;6.87;61.36
66479;BME280;53294;47.912;13.526;2023-04-09T00:51:11;96738.63;;;6.86;61.85
66479;BME280;53294;47.912;13.526;2023-04-09T00:53:37;96749.06;;;6.88;61.50
66479;BME280;53294;47.912;13.526;2023-04-09T00:56:04;96755.69;;;6.80;61.65
66479;BME280;53294;47.912;13.526;2023-04-09T00:58:32;96755.66;;;6.75;61.81
66479;BME280;53294;47.912;13.526;2023-04-09T01:00:58;96758.84;;;6.39;63.43
66479;BME280;53294;47.912;13.526;2023-04-09T01:03:25;96749.72;;;6.68;62.25
66479;BME280;53294;47.912;13.526;2023-04-09T01:09:02;96743.28;;;7.06;61.17
66479;BME280;53294;47.912;13.526;2023-04-09T01:14:39;96743.53;;;6.99;61.46
66479;BME280;53294;47.912;13.526;2023-04-09T01:20:08;96744.34;;;7.05;60.95
66479;BME280;53294;47.912;13.526;2023-04-09T01:25:28;96747.31;;;7.09;60.63
66479;BME280;53294;47.912;13.526;2023-04-09T01:28:35;96756.47;;;7.18;60.51
66479;BME280;53294;47.912;13.526;2023-04-09T01:31:14;96750.03;;;7.14;60.45
66479;BME280;53294;47.912;13.526;2023-04-09T01:33:43;96744.59;;;7.04;60.51
66479;BME280;53294;47.912;13.526;2023-04-09T01:36:10;96745.69;;;7.03;60.56
66479;BME280;53294;47.912;13.526;2023-04-09T01:38:40;96747.50;;;6.97;60.96
66479;BME280;53294;47.912;13.526;2023-04-09T01:41:11;96750.47;;;7.00;60.71
66479;BME280;53294;47.912;13.526;2023-04-09T01:43:40;96750.44;;;6.95;61.05
66479;BME280;53294;47.912;13.526;2023-04-09T01:46:08;96748.06;;;6.99;60.87
66479;BME280;53294;47.912;13.526;2023-04-09T01:48:36;96749.94;;;7.04;60.56
66479;BME280;53294;47.912;13.526;2023-04-09T01:51:03;96747.25;;;6.98;60.79
66479;BME280;53294;47.912;13.526;2023-04-09T01:53:30;96744.59;;;7.04;60.71
66479;BME280;53294;47.912;13.526;2023-04-09T01:56:00;96756.13;;;7.09;60.48
66479;BME280;53294;47.912;13.526;2023-04-09T01:58:27;96752.41;;;7.10;60.67
66479;BME280;53294;47.912;13.526;2023-04-09T02:01:03;96746.28;;;7.15;60.45
66479;BME280;53294;47.912;13.526;2023-04-09T02:03:39;96750.59;;;7.21;60.36
66479;BME280;53294;47.912;13.526;2023-04-09T02:06:43;96748.44;;;7.18;60.29
66479;BME280;53294;47.912;13.526;2023-04-09T02:09:06;96742.59;;;7.21;60.21
66479;BME280;53294;47.912;13.526;2023-04-09T02:11:37;96744.69;;;7.19;60.28
66479;BME280;53294;47.912;13.526;2023-04-09T02:14:05;96740.44;;;7.18;60.17
66479;BME280;53294;47.912;13.526;2023-04-09T02:16:34;96738.75;;;7.07;60.65
66479;BME280;53294;47.912;13.526;2023-04-09T02:19:01;96739.81;;;7.06;60.57
66479;BME280;53294;47.912;13.526;2023-04-09T02:21:28;96737.94;;;7.06;60.48
66479;BME280;53294;47.912;13.526;2023-04-09T02:23:55;96743.03;;;7.03;60.60
66479;BME280;53294;47.912;13.526;2023-04-09T02:26:22;96745.69;;;7.03;60.61
66479;BME280;53294;47.912;13.526;2023-04-09T02:28:49;96749.91;;;6.93;61.20
66479;BME280;53294;47.912;13.526;2023-04-09T02:31:16;96742.44;;;7.00;60.81
66479;BME280;53294;47.912;13.526;2023-04-09T02:33:43;96745.38;;;6.99;61.03
66479;BME280;53294;47.912;13.526;2023-04-09T02:36:10;96742.97;;;6.97;60.93
66479;BME280;53294;47.912;13.526;2023-04-09T02:38:40;96744.13;;;7.12;60.30
66479;BME280;53294;47.912;13.526;2023-04-09T02:41:08;96739.78;;;7.00;60.93
66479;BME280;53294;47.912;13.526;2023-04-09T02:43:35;96737.94;;;7.06;60.64
66479;BME280;53294;47.912;13.526;2023-04-09T02:46:02;96743.06;;;7.13;60.23
66479;BME280;53294;47.912;13.526;2023-04-09T02:48:29;96743.03;;;7.03;60.68
66479;BME280;53294;47.912;13.526;2023-04-09T02:50:55;96742.53;;;7.11;60.54
66479;BME280;53294;47.912;13.526;2023-04-09T02:53:22;96738.66;;;6.91;61.61
66479;BME280;53294;47.912;13.526;2023-04-09T02:55:49;96742.81;;;6.72;62.22
66479;BME280;53294;47.912;13.526;2023-04-09T02:58:15;96743.09;;;6.38;63.36
66479;BME280;53294;47.912;13.526;2023-04-09T03:00:42;96738.91;;;6.47;62.46
66479;BME280;53294;47.912;13.526;2023-04-09T03:03:09;96740.13;;;6.67;61.74
66479;BME280;53294;47.912;13.526;2023-04-09T03:05:36;96747.06;;;6.68;61.69
66479;BME280;53294;47.912;13.526;2023-04-09T03:08:03;96739.28;;;6.66;61.59
66479;BME280;53294;47.912;13.526;2023-04-09T03:10:29;96733.75;;;6.73;61.44
66479;BME280;53294;47.912;13.526;2023-04-09T03:12:56;96730.84;;;6.74;61.58
66479;BME280;53294;47.912;13.526;2023-04-09T03:15:23;96734.84;;;6.77;61.20
66479;BME280;53294;47.912;13.526;2023-04-09T03:17:49;96740.03;;;6.56;62.17
66479;BME280;53294;47.912;13.526;2023-04-09T03:20:16;96728.88;;;6.64;61.45
66479;BME280;53294;47.912;13.526;2023-04-09T03:22:43;96728.69;;;6.76;61.19
66479;BME280;53294;47.912;13.526;2023-04-09T03:25:09;96728.69;;;6.76;61.48
66479;BME280;53294;47.912;13.526;2023-04-09T03:27:36;96729.47;;;6.72;61.53
66479;BME280;53294;47.912;13.526;2023-04-09T03:30:03;96720.72;;;6.81;61.02
66479;BME280;53294;47.912;13.526;2023-04-09T03:32:29;96727.44;;;6.89;61.00
66479;BME280;53294;47.912;13.526;2023-04-09T03:34:56;96720.47;;;6.88;60.72
66479;BME280;53294;47.912;13.526;2023-04-09T03:37:23;96724.22;;;6.87;60.77
66479;BME280;53294;47.912;13.526;2023-04-09T03:39:49;96719.94;;;6.86;61.00
66479;BME280;53294;47.912;13.526;2023-04-09T03:42:16;96717.00;;;6.88;60.74
66479;BME280;53294;47.912;13.526;2023-04-09T03:44:43;96719.41;;;6.84;61.17
66479;BME280;53294;47.912;13.526;2023-04-09T03:47:09;96722.69;;;6.96;60.66
66479;BME280;53294;47.912;13.526;2023-04-09T03:49:36;96726.41;;;6.95;60.76
66479;BME280;53294;47.912;13.526;2023-04-09T03:52:05;96729.63;;;6.97;60.86
66479;BME280;53294;47.912;13.526;2023-04-09T03:54:31;96727.75;;;6.98;60.77
66479;BME280;53294;47.912;13.526;2023-04-09T03:56:58;96725.88;;;6.98;60.74
66479;BME280;53294;47.912;13.526;2023-04-09T03:59:25;96727.34;;;6.79;61.34
66479;BME280;53294;47.912;13.526;2023-04-09T04:01:51;96734.03;;;6.76;61.59
66479;BME280;53294;47.912;13.526;2023-04-09T04:04:18;96731.34;;;6.71;61.81
66479;BME280;53294;47.912;13.526;2023-04-09T04:06:48;96738.03;;;6.79;61.64
66479;BME280;53294;47.912;13.526;2023-04-09T04:09:15;96726.38;;;6.90;61.26
66479;BME280;53294;47.912;13.526;2023-04-09T04:11:42;96735.44;;;6.84;61.05
66479;BME280;53294;47.912;13.526;2023-04-09T04:14:08;96741.78;;;6.78;61.24
66479;BME280;53294;47.912;13.526;2023-04-09T04:16:35;96737.53;;;6.82;61.13
66479;BME280;53294;47.912;13.526;2023-04-09T04:19:02;96741.28;;;6.81;61.32
66479;BME280;53294;47.912;13.526;2023-04-09T04:21:28;96747.66;;;6.80;61.31
66479;BME280;53294;47.912;13.526;2023-04-09T04:23:55;96737.50;;;6.77;61.67
66479;BME280;53294;47.912;13.526;2023-04-09T04:26:22;96742.88;;;6.82;61.30
66479;BME280;53294;47.912;13.526;2023-04-09T04:28:48;96741.31;;;6.91;60.96
66479;BME280;53294;47.912;13.526;2023-04-09T04:31:16;96750.69;;;6.94;60.73
66479;BME280;53294;47.912;13.526;2023-04-09T04:33:42;96749.91;;;6.93;60.79
66479;BME280;53294;47.912;13.526;2023-04-09T04:36:11;96749.38;;;6.96;60.80
66479;BME280;53294;47.912;13.526;2023-04-09T04:38:39;96746.94;;;6.90;61.16
66479;BME280;53294;47.912;13.526;2023-04-09T04:41:07;96755.00;;;6.95;60.88
66479;BME280;53294;47.912;13.526;2023-04-09T04:43:33;96756.03;;;6.94;61.11
66479;BME280;53294;47.912;13.526;2023-04-09T04:46:00;96753.63;;;6.92;61.38
66479;BME280;53294;47.912;13.526;2023-04-09T04:48:28;96745.91;;;6.96;61.00
66479;BME280;53294;47.912;13.526;2023-04-09T04:50:57;96759.56;;;6.99;61.02
66479;BME280;53294;47.912;13.526;2023-04-09T04:53:24;96764.91;;;6.99;60.82
66479;BME280;53294;47.912;13.526;2023-04-09T04:55:52;96761.03;;;6.80;62.18
66479;BME280;53294;47.912;13.526;2023-04-09T04:58:19;96763.69;;;6.80;61.86
66479;BME280;53294;47.912;13.526;2023-04-09T05:00:45;96765.34;;;6.86;61.45
66479;BME280;53294;47.912;13.526;2023-04-09T05:03:13;96779.22;;;6.88;61.46
66479;BME280;53294;47.912;13.526;2023-04-09T05:05:40;96770.41;;;6.88;61.60
66479;BME280;53294;47.912;13.526;2023-04-09T05:08:07;96770.75;;;6.96;61.27
66479;BME280;53294;47.912;13.526;2023-04-09T05:10:33;96754.75;;;7.01;61.05
66479;BME280;53294;47.912;13.526;2023-04-09T05:13:00;96763.66;;;6.75;62.07
66479;BME280;53294;47.912;13.526;2023-04-09T05:15:27;96761.91;;;6.53;63.01
66479;BME280;53294;47.912;13.526;2023-04-09T05:17:53;96764.75;;;6.14;64.55
66479;BME280;53294;47.912;13.526;2023-04-09T05:20:20;96766.91;;;5.68;66.20
66479;BME280;53294;47.912;13.526;2023-04-09T05:22:47;96771.38;;;5.40;67.36
66479;BME280;53294;47.912;13.526;2023-04-09T05:25:13;96772.94;;;5.58;66.47
66479;BME280;53294;47.912;13.526;2023-04-09T05:27:41;96775.81;;;5.34;67.62
66479;BME280;53294;47.912;13.526;2023-04-09T05:30:08;96774.97;;;5.73;65.84
66479;BME280;53294;47.912;13.526;2023-04-09T05:32:35;96773.53;;;6.09;64.33
66479;BME280;53294;47.912;13.526;2023-04-09T05:35:03;96778.53;;;6.33;63.15
66479;BME280;53294;47.912;13.526;2023-04-09T05:37:30;96783.09;;;6.33;63.31
66479;BME280;53294;47.912;13.526;2023-04-09T05:39:56;96771.47;;;6.49;62.53
66479;BME280;53294;47.912;13.526;2023-04-09T05:42:23;96767.84;;;6.60;62.17
66479;BME280;53294;47.912;13.526;2023-04-09T05:44:49;96773.72;;;6.62;62.22
66479;BME280;53294;47.912;13.526;2023-04-09T05:47:16;96772.09;;;6.61;62.65
66479;BME280;53294;47.912;13.526;2023-04-09T05:49:43;96769.41;;;6.56;62.92
66479;BME280;53294;47.912;13.526;2023-04-09T05:52:09;96767.59;;;6.62;63.01
66479;BME280;53294;47.912;13.526;2023-04-09T05:54:36;96767.66;;;6.72;62.43
66479;BME280;53294;47.912;13.526;2023-04-09T05:57:03;96775.13;;;6.75;62.39
66479;BME280;53294;47.912;13.526;2023-04-09T05:59:30;96780.47;;;6.75;62.42
66479;BME280;53294;47.912;13.526;2023-04-09T06:01:56;96779.53;;;6.54;63.68
66479;BME280;53294;47.912;13.526;2023-04-09T06:04:23;96786.03;;;6.69;63.15
66479;BME280;53294;47.912;13.526;2023-04-09T06:06:50;96779.97;;;6.78;62.62
66479;BME280;53294;47.912;13.526;2023-04-09T06:09:17;96781.59;;;6.79;62.96
66479;BME280;53294;47.912;13.526;2023-04-09T06:11:43;96785.66;;;6.87;62.74
66479;BME280;53294;47.912;13.526;2023-04-09T06:14:10;96785.91;;;6.86;62.92
66479;BME280;53294;47.912;13.526;2023-04-09T06:16:41;96781.13;;;6.93;62.47
66479;BME280;53294;47.912;13.526;2023-04-09T06:19:08;96780.94;;;6.99;62.17
66479;BME280;53294;47.912;13.526;2023-04-09T06:21:35;96785.75;;;7.03;61.91
66479;BME280;53294;47.912;13.526;2023-04-09T06:24:01;96786.28;;;7.05;61.88
66479;BME280;53294;47.912;13.526;2023-04-09T06:26:28;96793.69;;;6.92;62.47
66479;BME280;53294;47.912;13.526;2023-04-09T06:28:54;96783.50;;;6.84;62.51
66479;BME280;53294;47.912;13.526;2023-04-09T06:31:21;96794.28;;;6.99;62.10
66479;BME280;53294;47.912;13.526;2023-04-09T06:33:48;96801.00;;;7.07;61.67
66479;BME280;53294;47.912;13.526;2023-04-09T06:36:14;96806.63;;;7.11;61.58
66479;BME280;53294;47.912;13.526;2023-04-09T06:38:41;96801.84;;;7.13;61.70
66479;BME280;53294;47.912;13.526;2023-04-09T06:41:08;96800.53;;;7.15;61.79
66479;BME280;53294;47.912;13.526;2023-04-09T06:43:37;96798.63;;;7.11;62.03
66479;BME280;53294;47.912;13.526;2023-04-09T06:46:03;96802.91;;;7.12;61.86
66479;BME280;53294;47.912;13.526;2023-04-09T06:48:30;96805.75;;;6.95;62.77
66479;BME280;53294;47.912;13.526;2023-04-09T06:50:57;96802.47;;;6.88;63.31
66479;BME280;53294;47.912;13.526;2023-04-09T06:53:23;96810.09;;;7.06;62.18
66479;BME280;53294;47.912;13.526;2023-04-09T06:55:50;96799.13;;;7.08;62.48
66479;BME280;53294;47.912;13.526;2023-04-09T06:58:17;96804.66;;;6.96;62.72
66479;BME280;53294;47.912;13.526;2023-04-09T07:00:44;96804.59;;;6.86;63.14
66479;BME280;53294;47.912;13.526;2023-04-09T07:03:10;96805.06;;;6.77;63.30
66479;BME280;53294;47.912;13.526;2023-04-09T07:05:37;96809.06;;;6.75;63.28
66479;BME280;53294;47.912;13.526;2023-04-09T07:08:04;96809.19;;;6.90;62.49
66479;BME280;53294;47.912;13.526;2023-04-09T07:10:30;96818.75;;;6.86;62.87
66479;BME280;53294;47.912;13.526;2023-04-09T07:12:57;96813.09;;;6.45;64.27
66479;BME280;53294;47.912;13.526;2023-04-09T07:15:24;96816.94;;;6.59;63.50
66479;BME280;53294;47.912;13.526;2023-04-09T07:17:50;96812.25;;;6.44;64.31
66479;BME280;53294;47.912;13.526;2023-04-09T07:20:17;96820.22;;;6.12;65.35
66479;BME280;53294;47.912;13.526;2023-04-09T07:22:44;96817.41;;;5.97;66.45
66479;BME280;53294;47.912;13.526;2023-04-09T07:25:11;96824.75;;;5.67;67.26
66479;BME280;53294;47.912;13.526;2023-04-09T07:27:37;96820.66;;;5.60;67.48
66479;BME280;53294;47.912;13.526;2023-04-09T07:30:05;96822.28;;;5.83;66.47
66479;BME280;53294;47.912;13.526;2023-04-09T07:32:32;96820.41;;;5.83;66.33
66479;BME280;53294;47.912;13.526;2023-04-09T07:34:58;96826.25;;;5.80;66.63
66479;BME280;53294;47.912;13.526;2023-04-09T07:37:25;96828.28;;;5.73;66.72
66479;BME280;53294;47.912;13.526;2023-04-09T07:39:52;96826.91;;;5.92;66.50
66479;BME280;53294;47.912;13.526;2023-04-09T07:42:19;96831.88;;;5.62;68.26
66479;BME280;53294;47.912;13.526;2023-04-09T07:44:46;96825.19;;;5.81;66.92
66479;BME280;53294;47.912;13.526;2023-04-09T07:47:13;96826.69;;;5.72;67.46
66479;BME280;53294;47.912;13.526;2023-04-09T07:49:40;96822.19;;;5.78;67.48
66479;BME280;53294;47.912;13.526;2023-04-09T07:52:07;96829.78;;;6.08;66.35
66479;BME280;53294;47.912;13.526;2023-04-09T07:54:34;96834.63;;;6.11;66.12
66479;BME280;53294;47.912;13.526;2023-04-09T07:57:01;96831.81;;;5.79;67.74
66479;BME280;53294;47.912;13.526;2023-04-09T07:59:28;96835.50;;;5.33;69.92
66479;BME280;53294;47.912;13.526;2023-04-09T08:01:57;96845.53;;;4.75;71.24
66479;BME280;53294;47.912;13.526;2023-04-09T08:04:23;96846.31;;;4.42;72.57
66479;BME280;53294;47.912;13.526;2023-04-09T08:06:50;96855.34;;;4.41;73.04
66479;BME280;53294;47.912;13.526;2023-04-09T08:09:18;96854.22;;;4.37;73.07
66479;BME280;53294;47.912;13.526;2023-04-09T08:11:45;96865.00;;;4.30;73.80
66479;BME280;53294;47.912;13.526;2023-04-09T08:14:13;96849.78;;;4.42;73.61
66479;BME280;53294;47.912;13.526;2023-04-09T08:16:48;96859.81;;;4.23;74.06
66479;BME280;53294;47.912;13.526;2023-04-09T08:19:16;96857.41;;;4.22;75.06
66479;BME280;53294;47.912;13.526;2023-04-09T08:21:44;96863.19;;;4.19;74.42
66479;BME280;53294;47.912;13.526;2023-04-09T08:24:14;96863.09;;;4.42;74.07
66479;BME280;53294;47.912;13.526;2023-04-09T08:26:41;96862.22;;;4.54;73.70
66479;BME280;53294;47.912;13.526;2023-04-09T08:29:09;96865.94;;;4.24;75.28
66479;BME280;53294;47.912;13.526;2023-04-09T08:31:37;96866.69;;;4.36;74.65
66479;BME280;53294;47.912;13.526;2023-04-09T08:34:04;96866.88;;;4.18;75.55
66479;BME280;53294;47.912;13.526;2023-04-09T08:36:31;96873.56;;;4.32;74.94
66479;BME280;53294;47.912;13.526;2023-04-09T08:39:00;96872.59;;;4.38;74.52
66479;BME280;53294;47.912;13.526;2023-04-09T08:41:27;96873.16;;;4.11;75.43
66479;BME280;53294;47.912;13.526;2023-04-09T08:43:55;96877.88;;;3.81;77.47
66479;BME280;53294;47.912;13.526;2023-04-09T08:46:25;96874.31;;;4.16;74.80
66479;BME280;53294;47.912;13.526;2023-04-09T08:48:53;96880.00;;;4.07;75.79
66479;BME280;53294;47.912;13.526;2023-04-09T08:51:22;96876.09;;;4.27;75.37
66479;BME280;53294;47.912;13.526;2023-04-09T08:53:56;96875.97;;;3.93;75.88
66479;BME280;53294;47.912;13.526;2023-04-09T08:56:25;96885.09;;;4.09;75.73
66479;BME280;53294;47.912;13.526;2023-04-09T08:58:53;96883.78;;;4.11;75.93
66479;BME280;53294;47.912;13.526;2023-04-09T09:01:22;96885.31;;;4.36;74.18
66479;BME280;53294;47.912;13.526;2023-04-09T09:06:22;96888.44;;;4.62;73.16
66479;BME280;53294;47.912;13.526;2023-04-09T09:09:08;96883.44;;;4.65;74.04
66479;BME280;53294;47.912;13.526;2023-04-09T09:11:36;96889.28;;;4.34;74.56
66479;BME280;53294;47.912;13.526;2023-04-09T09:14:06;96879.75;;;4.66;74.17
66479;BME280;53294;47.912;13.526;2023-04-09T09:16:34;96887.09;;;4.76;73.22
66479;BME280;53294;47.912;13.526;2023-04-09T09:19:02;96885.06;;;4.66;74.01
66479;BME280;53294;47.912;13.526;2023-04-09T09:21:28;96877.31;;;4.65;73.91
66479;BME280;53294;47.912;13.526;2023-04-09T09:23:56;96881.72;;;4.88;73.02
66479;BME280;53294;47.912;13.526;2023-04-09T09:26:29;96878.63;;;5.13;72.91
66479;BME280;53294;47.912;13.526;2023-04-09T09:28:56;96882.50;;;5.22;72.85
66479;BME280;53294;47.912;13.526;2023-04-09T09:31:26;96872.78;;;5.50;71.59
66479;BME280;53294;47.912;13.526;2023-04-09T09:33:53;96872.00;;;5.72;71.03
66479;BME280;53294;47.912;13.526;2023-04-09T09:36:33;96875.91;;;5.08;72.56
66479;BME280;53294;47.912;13.526;2023-04-09T09:39:01;96881.84;;;4.98;73.99
66479;BME280;53294;47.912;13.526;2023-04-09T09:41:30;96878.81;;;5.07;73.12
66479;BME280;53294;47.912;13.526;2023-04-09T09:43:57;96877.88;;;5.35;72.64
66479;BME280;53294;47.912;13.526;2023-04-09T09:46:24;96881.03;;;5.32;72.65
66479;BME280;53294;47.912;13.526;2023-04-09T09:48:52;96875.44;;;5.50;72.51
66479;BME280;53294;47.912;13.526;2023-04-09T09:51:23;96878.88;;;5.68;71.27
66479;BME280;53294;47.912;13.526;2023-04-09T09:53:54;96870.66;;;5.52;72.61
66479;BME280;53294;47.912;13.526;2023-04-09T09:56:33;96873.53;;;5.68;71.91
66479;BME280;53294;47.912;13.526;2023-04-09T09:59:29;96872.41;;;5.64;71.61
66479;BME280;53294;47.912;13.526;2023-04-09T10:02:03;96874.75;;;5.04;73.66
66479;BME280;53294;47.912;13.526;2023-04-09T10:04:34;96869.25;;;5.11;73.36
66479;BME280;53294;47.912;13.526;2023-04-09T10:07:04;96885.22;;;4.77;74.94
66479;BME280;53294;47.912;13.526;2023-04-09T10:09:34;96878.44;;;4.69;75.55
66479;BME280;53294;47.912;13.526;2023-04-09T10:12:03;96881.22;;;4.74;75.05
66479;BME280;53294;47.912;13.526;2023-04-09T10:14:30;96872.03;;;4.99;74.66
66479;BME280;53294;47.912;13.526;2023-04-09T10:16:57;96881.84;;;4.81;75.44
66479;BME280;53294;47.912;13.526;2023-04-09T10:19:24;96883.94;;;4.62;75.64
66479;BME280;53294;47.912;13.526;2023-04-09T10:21:58;96883.25;;;4.55;75.46
66479;BME280;53294;47.912;13.526;2023-04-09T10:24:27;96886.94;;;4.37;76.26
66479;BME280;53294;47.912;13.526;2023-04-09T10:26:54;96884.47;;;4.19;76.85
66479;BME280;53294;47.912;13.526;2023-04-09T10:29:27;96884.84;;;4.10;77.47
66479;BME280;53294;47.912;13.526;2023-04-09T10:32:04;96887.69;;;4.21;77.29
66479;BME280;53294;47.912;13.526;2023-04-09T10:34:37;96882.63;;;4.48;75.27
66479;BME280;53294;47.912;13.526;2023-04-09T10:37:16;96888.56;;;4.38;75.96
66479;BME280;53294;47.912;13.526;2023-04-09T10:39:47;96886.47;;;4.40;77.28
66479;BME280;53294;47.912;13.526;2023-04-09T10:42:23;96889.22;;;4.17;76.33
66479;BME280;53294;47.912;13.526;2023-04-09T10:45:07;96878.69;;;4.22;76.60
66479;BME280;53294;47.912;13.526;2023-04-09T10:47:36;96877.94;;;4.38;75.62
66479;BME280;53294;47.912;13.526;2023-04-09T10:50:25;96880.88;;;4.25;77.65
66479;BME280;53294;47.912;13.526;2023-04-09T10:52:54;96882.72;;;4.24;76.68
66479;BME280;53294;47.912;13.526;2023-04-09T10:57:57;96877.22;;;4.60;75.66
66479;BME280;53294;47.912;13.526;2023-04-09T11:00:25;96881.69;;;4.71;74.74
66479;BME280;53294;47.912;13.526;2023-04-09T11:03:09;96879.34;;;4.75;74.92
66479;BME280;53294;47.912;13.526;2023-04-09T11:05:40;96884.25;;;4.66;75.80
66479;BME280;53294;47.912;13.526;2023-04-09T11:08:15;96880.25;;;4.80;75.14
66479;BME280;53294;47.912;13.526;2023-04-09T11:10:42;96881.81;;;4.64;75.06
66479;BME280;53294;47.912;13.526;2023-04-09T11:13:22;96868.16;;;4.90;74.46
66479;BME280;53294;47.912;13.526;2023-04-09T11:15:49;96873.47;;;5.24;73.19
66479;BME280;53294;47.912;13.526;2023-04-09T11:18:29;96877.31;;;5.33;72.82
66479;BME280;53294;47.912;13.526;2023-04-09T11:20:58;96876.53;;;5.15;73.35
66479;BME280;53294;47.912;13.526;2023-04-09T11:23:25;96872.75;;;4.94;74.02
66479;BME280;53294;47.912;13.526;2023-04-09T11:25:53;96874.94;;;5.14;73.70
66479;BME280;53294;47.912;13.526;2023-04-09T11:28:20;96877.19;;;5.06;74.52
66479;BME280;53294;47.912;13.526;2023-04-09T11:30:49;96873.97;;;5.20;73.46
66479;BME280;53294;47.912;13.526;2023-04-09T11:33:16;96874.25;;;5.41;72.83
66479;BME280;53294;47.912;13.526;2023-04-09T11:35:46;96881.13;;;5.59;72.39
66479;BME280;53294;47.912;13.526;2023-04-09T11:38:12;96871.16;;;5.71;72.05
66479;BME280;53294;47.912;13.526;2023-04-09T11:40:40;96876.88;;;5.58;72.30
66479;BME280;53294;47.912;13.526;2023-04-09T11:43:14;96875.31;;;5.62;72.47
66479;BME280;53294;47.912;13.526;2023-04-09T11:45:46;96882.56;;;5.67;71.66
66479;BME280;53294;47.912;13.526;2023-04-09T11:48:15;96890.50;;;5.62;72.20
66479;BME280;53294;47.912;13.526;2023-04-09T11:50:44;96893.72;;;5.64;72.10
66479;BME280;53294;47.912;13.526;2023-04-09T11:53:18;96884.19;;;5.68;71.68
66479;BME280;53294;47.912;13.526;2023-04-09T11:55:54;96886.84;;;5.29;73.93
66479;BME280;53294;47.912;13.526;2023-04-09T11:58:22;96880.75;;;4.94;74.86
66479;BME280;53294;47.912;13.526;2023-04-09T12:00:53;96888.59;;;4.72;75.71
66479;BME280;53294;47.912;13.526;2023-04-09T12:03:29;96890.34;;;4.49;76.73
66479;BME280;53294;47.912;13.526;2023-04-09T12:06:00;96893.91;;;4.55;76.56
66479;BME280;53294;47.912;13.526;2023-04-09T12:08:27;96890.97;;;4.85;74.86
66479;BME280;53294;47.912;13.526;2023-04-09T12:10:54;96889.09;;;4.69;76.41
66479;BME280;53294;47.912;13.526;2023-04-09T12:13:31;96886.53;;;4.74;75.96
66479;BME280;53294;47.912;13.526;2023-04-09T12:15:59;96885.59;;;4.97;75.15
66479;BME280;53294;47.912;13.526;2023-04-09T12:18:26;96880.56;;;5.01;74.80
66479;BME280;53294;47.912;13.526;2023-04-09T12:20:53;96887.34;;;5.09;75.28
66479;BME280;53294;47.912;13.526;2023-04-09T12:23:19;96889.59;;;5.34;73.91
66479;BME280;53294;47.912;13.526;2023-04-09T12:25:46;96883.78;;;5.03;75.57
66479;BME280;53294;47.912;13.526;2023-04-09T12:28:14;96879.41;;;4.80;75.76
66479;BME280;53294;47.912;13.526;2023-04-09T12:30:42;96892.34;;;4.71;77.12
66479;BME280;53294;47.912;13.526;2023-04-09T12:33:09;96884.84;;;5.02;75.49
66479;BME280;53294;47.912;13.526;2023-04-09T12:35:37;96877.25;;;5.11;75.77
66479;BME280;53294;47.912;13.526;2023-04-09T12:38:04;96884.31;;;5.39;74.50
66479;BME280;53294;47.912;13.526;2023-04-09T12:40:31;96877.97;;;5.06;75.85
66479;BME280;53294;47.912;13.526;2023-04-09T12:42:58;96876.22;;;4.95;76.51
66479;BME280;53294;47.912;13.526;2023-04-09T12:45:24;96875.91;;;5.08;76.16
66479;BME280;53294;47.912;13.526;2023-04-09T12:47:51;96879.78;;;5.17;76.15
66479;BME280;53294;47.912;13.526;2023-04-09T12:50:18;96881.91;;;5.37;75.44
66479;BME280;53294;47.912;13.526;2023-04-09T12:52:45;96879.38;;;5.87;73.54
66479;BME280;53294;47.912;13.526;2023-04-09T12:55:13;96878.78;;;6.02;73.01
66479;BME280;53294;47.912;13.526;2023-04-09T12:57:42;96879.88;;;6.06;72.96
66479;BME280;53294;47.912;13.526;2023-04-09T13:00:09;96874.06;;;6.31;72.29
66479;BME280;53294;47.912;13.526;2023-04-09T13:02:36;96877.09;;;6.18;73.22
66479;BME280;53294;47.912;13.526;2023-04-09T13:05:03;96879.72;;;6.40;72.00
66479;BME280;53294;47.912;13.526;2023-04-09T13:07:30;96883.16;;;6.62;71.58
66479;BME280;53294;47.912;13.526;2023-04-09T13:09:57;96880.53;;;6.68;71.86
66479;BME280;53294;47.912;13.526;2023-04-09T13:12:24;96875.81;;;6.75;71.72
66479;BME280;53294;47.912;13.526;2023-04-09T13:14:53;96871.75;;;6.99;70.72
66479;BME280;53294;47.912;13.526;2023-04-09T13:17:20;96877.22;;;6.55;71.72
66479;BME280;53294;47.912;13.526;2023-04-09T13:19:49;96865.72;;;6.82;70.57
66479;BME280;53294;47.912;13.526;2023-04-09T13:22:17;96870.38;;;6.64;71.12
66479;BME280;53294;47.912;13.526;2023-04-09T13:24:44;96864.84;;;6.44;70.99